Mountainhome, PA (18342)

7:53 AM EST on November 24, 2014 (GMT -0500)
Dogwood Ln | Change Station
CLOSE
Current Station
Personal Weather Station
Location: Canadensis, PA
Elevation: 1300 ft
Nearby Weather Stations
Active Advisory: Winter Storm Watch

Elev 1300 ft 41.17 °N, 75.19 °W | Updated 1 second ago

Overcast
Overcast
58.6 °F
Feels Like 58.6 °F
N
3.6
Wind Variable Wind from West
Gusts 3.8 mph

Today
High -- | Low -- °F
--% Chance of Precip.
Yesterday
High -- | Low -- °F
Precip. -- in
6:59 AM 4:35 PM
Waxing Crescent, 5% visible
Pressure 29.63 in
Visibility 10.0 miles
Clouds Overcast 700 ft
Dew Point 58 °F
Humidity 98%
Rainfall 0.92 in
Snow Depth Not available.
UV 0 out of 12
Pollen .10 out of 12
Air Quality Not available.
Flu Activity Not available.
SPECI KMPO 241249Z AUTO 22017G27KT 10SM -RA OVC007 14/13 A2963 RMK AO2 PK WND 21032/1206 CIG 004V012 P0002

More Conditions Fewer Conditions

Pressure 29.63 in
Visibility 10.0 miles
Clouds Overcast 700 ft
Dew Point 58 °F
Humidity 98%
Rainfall 0.92 in
Snow Depth Not available.
UV 0 out of 12
Pollen .10 out of 12
Air Quality Not available.
Flu Activity Not available.
SPECI KMPO 241249Z AUTO 22017G27KT 10SM -RA OVC007 14/13 A2963 RMK AO2 PK WND 21032/1206 CIG 004V012 P0002

More Conditions Fewer Conditions

Nowcast | as of 6:45 am EST on November 24, 2014

Scattered rain showers will lift northeast across the region. Through 8 am EST, an additional tenth of an inch of rain is possible with these showers. The showers are expected to move out of the region and dissipate by mid morning. In addition, occasional gusts of 30 to 40 mph are possible with these showers.

×

10-Day Weather Forecast

Almanac

Astronomy

Nov. 24, 2014 Rise Set
Actual Time
Civil Twilight
Nautical Twilight
Astronomical Twilight
Moon
Length of Visible Light
Length of Day
Tomorrow will be .
, % of the Moon is Illuminated

Today's Extremes

State Highs State Lows

Community

WunderPhotos

Upload Photos

1,773,320 photos uploaded!

WunderBlogs® & News

Nearby

Air Quality

  Air Quality AQ Index Pollutant
Not available.

Snow Depth

Station Depth Elevation

Earthquake Activity

City Distance Mag. Time & Date
Minimum magnitude displayed is 2.5.

Coastal Water Temperatures

Place Temperature

Nearby Weather Stations